sensor_id;sensor_type;location;lat;lon;timestamp;pressure;altitude;pressure_sealevel;temperature;humidity
23253;BME280;11795;47.054;15.408;2023-05-23T00:00:00;97100;;;17.0;73.2
23253;BME280;11795;47.054;15.408;2023-05-23T00:02:00;97090;;;17.0;74.1
23253;BME280;11795;47.054;15.408;2023-05-23T00:04:00;97090;;;16.9;74.3
23253;BME280;11795;47.054;15.408;2023-05-23T00:06:01;97090;;;16.9;74.3
23253;BME280;11795;47.054;15.408;2023-05-23T00:08:00;97090;;;17.0;73.7
23253;BME280;11795;47.054;15.408;2023-05-23T00:10:00;97090;;;16.9;74.0
23253;BME280;11795;47.054;15.408;2023-05-23T00:12:00;97080;;;17.1;73.6
23253;BME280;11795;47.054;15.408;2023-05-23T00:14:01;97080;;;16.9;73.7
23253;BME280;11795;47.054;15.408;2023-05-23T00:16:01;97090;;;16.8;74.1
23253;BME280;11795;47.054;15.408;2023-05-23T00:18:00;97090;;;16.9;73.7
23253;BME280;11795;47.054;15.408;2023-05-23T00:20:00;97090;;;16.7;74.4
23253;BME280;11795;47.054;15.408;2023-05-23T00:22:00;97080;;;16.9;74.3
23253;BME280;11795;47.054;15.408;2023-05-23T00:24:01;97090;;;16.8;74.4
23253;BME280;11795;47.054;15.408;2023-05-23T00:26:00;97090;;;16.7;74.7
23253;BME280;11795;47.054;15.408;2023-05-23T00:28:00;97080;;;16.9;74.0
23253;BME280;11795;47.054;15.408;2023-05-23T00:30:00;97090;;;16.7;74.7
23253;BME280;11795;47.054;15.408;2023-05-23T00:32:00;97090;;;16.8;74.4
23253;BME280;11795;47.054;15.408;2023-05-23T00:34:00;97090;;;16.7;74.6
23253;BME280;11795;47.054;15.408;2023-05-23T00:36:00;97090;;;16.6;75.1
23253;BME280;11795;47.054;15.408;2023-05-23T00:38:01;97090;;;16.8;74.4
23253;BME280;11795;47.054;15.408;2023-05-23T00:40:00;97090;;;16.7;74.8
23253;BME280;11795;47.054;15.408;2023-05-23T00:42:03;97090;;;16.8;74.6
23253;BME280;11795;47.054;15.408;2023-05-23T00:44:01;97090;;;16.7;74.9
23253;BME280;11795;47.054;15.408;2023-05-23T00:46:00;97090;;;16.5;75.5
23253;BME280;11795;47.054;15.408;2023-05-23T00:48:01;97090;;;16.7;74.7
23253;BME280;11795;47.054;15.408;2023-05-23T00:50:00;97080;;;16.5;75.3
23253;BME280;11795;47.054;15.408;2023-05-23T00:52:00;97080;;;16.6;75.3
23253;BME280;11795;47.054;15.408;2023-05-23T00:54:01;97080;;;16.5;75.5
23253;BME280;11795;47.054;15.408;2023-05-23T00:56:01;97080;;;16.4;75.8
23253;BME280;11795;47.054;15.408;2023-05-23T00:58:00;97080;;;16.6;75.0
23253;BME280;11795;47.054;15.408;2023-05-23T01:00:00;97080;;;16.5;75.5
23253;BME280;11795;47.054;15.408;2023-05-23T01:02:00;97080;;;16.5;75.4
23253;BME280;11795;47.054;15.408;2023-05-23T01:04:02;97080;;;16.5;75.4
23253;BME280;11795;47.054;15.408;2023-05-23T01:06:01;97080;;;16.3;75.9
23253;BME280;11795;47.054;15.408;2023-05-23T01:08:02;97080;;;16.5;75.5
23253;BME280;11795;47.054;15.408;2023-05-23T01:10:00;97080;;;16.3;76.2
23253;BME280;11795;47.054;15.408;2023-05-23T01:12:10;97080;;;16.4;76.2
23253;BME280;11795;47.054;15.408;2023-05-23T01:14:06;97080;;;16.3;76.3
23253;BME280;11795;47.054;15.408;2023-05-23T01:16:04;97080;;;16.2;76.8
23253;BME280;11795;47.054;15.408;2023-05-23T01:18:06;97080;;;16.4;76.1
23253;BME280;11795;47.054;15.408;2023-05-23T01:20:04;97080;;;16.2;76.6
23253;BME280;11795;47.054;15.408;2023-05-23T01:22:08;97070;;;16.4;76.4
23253;BME280;11795;47.054;15.408;2023-05-23T01:24:11;97070;;;16.3;76.2
23253;BME280;11795;47.054;15.408;2023-05-23T01:26:12;97070;;;16.2;76.7
23253;BME280;11795;47.054;15.408;2023-05-23T01:28:02;97070;;;16.3;76.1
23253;BME280;11795;47.054;15.408;2023-05-23T01:30:02;97070;;;16.2;76.5
23253;BME280;11795;47.054;15.408;2023-05-23T01:32:01;97070;;;16.2;76.6
23253;BME280;11795;47.054;15.408;2023-05-23T01:34:01;97070;;;16.1;76.7
23253;BME280;11795;47.054;15.408;2023-05-23T01:36:01;97060;;;16.0;77.4
23253;BME280;11795;47.054;15.408;2023-05-23T01:38:00;97070;;;16.2;76.8
23253;BME280;11795;47.054;15.408;2023-05-23T01:40:00;97060;;;16.0;77.7
23253;BME280;11795;47.054;15.408;2023-05-23T01:42:00;97070;;;16.0;77.8
23253;BME280;11795;47.054;15.408;2023-05-23T01:44:01;97070;;;16.0;77.5
23253;BME280;11795;47.054;15.408;2023-05-23T01:46:01;97070;;;15.9;77.9
23253;BME280;11795;47.054;15.408;2023-05-23T01:48:01;97060;;;16.0;77.3
23253;BME280;11795;47.054;15.408;2023-05-23T01:50:01;97060;;;15.8;78.0
23253;BME280;11795;47.054;15.408;2023-05-23T01:52:01;97060;;;15.9;78.1
23253;BME280;11795;47.054;15.408;2023-05-23T01:54:00;97050;;;15.9;77.8
23253;BME280;11795;47.054;15.408;2023-05-23T01:56:02;97050;;;15.8;78.2
23253;BME280;11795;47.054;15.408;2023-05-23T01:58:01;97050;;;15.9;77.6
23253;BME280;11795;47.054;15.408;2023-05-23T02:00:00;97050;;;15.8;78.3
23253;BME280;11795;47.054;15.408;2023-05-23T02:02:00;97050;;;15.9;78.2
23253;BME280;11795;47.054;15.408;2023-05-23T02:04:00;97050;;;15.9;78.0
23253;BME280;11795;47.054;15.408;2023-05-23T02:06:00;97050;;;15.7;78.5
23253;BME280;11795;47.054;15.408;2023-05-23T02:08:00;97050;;;15.9;78.0
23253;BME280;11795;47.054;15.408;2023-05-23T02:10:00;97050;;;15.7;78.6
23253;BME280;11795;47.054;15.408;2023-05-23T02:12:00;97050;;;15.7;78.7
23253;BME280;11795;47.054;15.408;2023-05-23T02:14:02;97050;;;15.7;78.8
23253;BME280;11795;47.054;15.408;2023-05-23T02:16:00;97050;;;15.6;79.6
23253;BME280;11795;47.054;15.408;2023-05-23T02:18:02;97050;;;15.8;79.0
23253;BME280;11795;47.054;15.408;2023-05-23T02:20:00;97050;;;15.6;79.4
23253;BME280;11795;47.054;15.408;2023-05-23T02:22:00;97050;;;15.6;79.6
23253;BME280;11795;47.054;15.408;2023-05-23T02:24:00;97050;;;15.6;79.2
23253;BME280;11795;47.054;15.408;2023-05-23T02:26:00;97050;;;15.6;79.7
23253;BME280;11795;47.054;15.408;2023-05-23T02:28:00;97040;;;15.8;79.1
23253;BME280;11795;47.054;15.408;2023-05-23T02:30:00;97050;;;15.6;79.5
23253;BME280;11795;47.054;15.408;2023-05-23T02:32:00;97040;;;15.6;79.7
23253;BME280;11795;47.054;15.408;2023-05-23T02:34:00;97040;;;15.6;79.2
23253;BME280;11795;47.054;15.408;2023-05-23T02:36:01;97040;;;15.5;79.5
23253;BME280;11795;47.054;15.408;2023-05-23T02:38:00;97040;;;15.6;78.9
23253;BME280;11795;47.054;15.408;2023-05-23T02:40:00;97040;;;15.4;79.5
23253;BME280;11795;47.054;15.408;2023-05-23T02:42:01;97030;;;15.4;79.9
23253;BME280;11795;47.054;15.408;2023-05-23T02:44:00;97030;;;15.4;79.5
23253;BME280;11795;47.054;15.408;2023-05-23T02:46:00;97030;;;15.3;80.2
23253;BME280;11795;47.054;15.408;2023-05-23T02:48:00;97030;;;15.5;79.9
23253;BME280;11795;47.054;15.408;2023-05-23T02:50:00;97030;;;15.3;80.5
23253;BME280;11795;47.054;15.408;2023-05-23T02:52:00;97030;;;15.2;80.9
23253;BME280;11795;47.054;15.408;2023-05-23T02:54:00;97030;;;15.4;80.3
23253;BME280;11795;47.054;15.408;2023-05-23T02:56:00;97020;;;15.2;80.8
23253;BME280;11795;47.054;15.408;2023-05-23T02:58:00;97020;;;15.4;80.3
23253;BME280;11795;47.054;15.408;2023-05-23T03:00:00;97020;;;15.3;80.6
23253;BME280;11795;47.054;15.408;2023-05-23T03:02:00;97020;;;15.2;81.0
23253;BME280;11795;47.054;15.408;2023-05-23T03:04:00;97020;;;15.3;80.4
23253;BME280;11795;47.054;15.408;2023-05-23T03:06:01;97020;;;15.2;80.9
23253;BME280;11795;47.054;15.408;2023-05-23T03:08:00;97020;;;15.4;80.5
23253;BME280;11795;47.054;15.408;2023-05-23T03:10:00;97020;;;15.2;81.0
23253;BME280;11795;47.054;15.408;2023-05-23T03:12:00;97020;;;15.1;81.4
23253;BME280;11795;47.054;15.408;2023-05-23T03:14:00;97020;;;15.2;80.6
23253;BME280;11795;47.054;15.408;2023-05-23T03:16:00;97020;;;15.1;81.0
23253;BME280;11795;47.054;15.408;2023-05-23T03:18:00;97020;;;15.3;80.2
23253;BME280;11795;47.054;15.408;2023-05-23T03:20:00;97020;;;15.1;80.6
23253;BME280;11795;47.054;15.408;2023-05-23T03:22:00;97020;;;15.1;81.1
23253;BME280;11795;47.054;15.408;2023-05-23T03:24:00;97020;;;15.2;80.4
23253;BME280;11795;47.054;15.408;2023-05-23T03:26:01;97020;;;15.0;80.9
23253;BME280;11795;47.054;15.408;2023-05-23T03:28:00;97010;;;15.2;80.2
23253;BME280;11795;47.054;15.408;2023-05-23T03:30:01;97010;;;15.1;80.6
23253;BME280;11795;47.054;15.408;2023-05-23T03:32:00;97020;;;15.0;81.0
23253;BME280;11795;47.054;15.408;2023-05-23T03:34:00;97020;;;15.1;80.3
23253;BME280;11795;47.054;15.408;2023-05-23T03:36:00;97020;;;15.0;81.1
23253;BME280;11795;47.054;15.408;2023-05-23T03:38:00;97020;;;15.2;80.4
23253;BME280;11795;47.054;15.408;2023-05-23T03:40:00;97020;;;15.0;81.0
23253;BME280;11795;47.054;15.408;2023-05-23T03:42:00;97030;;;15.0;81.2
23253;BME280;11795;47.054;15.408;2023-05-23T03:44:00;97020;;;15.1;80.3
23253;BME280;11795;47.054;15.408;2023-05-23T03:46:00;97030;;;15.0;80.7
23253;BME280;11795;47.054;15.408;2023-05-23T03:48:00;97020;;;15.1;80.6
23253;BME280;11795;47.054;15.408;2023-05-23T03:50:00;97020;;;15.0;81.3
23253;BME280;11795;47.054;15.408;2023-05-23T03:52:00;97020;;;14.9;81.8
23253;BME280;11795;47.054;15.408;2023-05-23T03:54:00;97020;;;15.1;80.9
23253;BME280;11795;47.054;15.408;2023-05-23T03:56:00;97030;;;15.0;81.7
23253;BME280;11795;47.054;15.408;2023-05-23T03:58:00;97030;;;15.2;81.3
23253;BME280;11795;47.054;15.408;2023-05-23T04:00:02;97030;;;15.0;82.0
23253;BME280;11795;47.054;15.408;2023-05-23T04:02:00;97030;;;15.0;82.2
23253;BME280;11795;47.054;15.408;2023-05-23T04:04:01;97030;;;15.2;81.4
23253;BME280;11795;47.054;15.408;2023-05-23T04:06:00;97030;;;15.1;81.7
23253;BME280;11795;47.054;15.408;2023-05-23T04:08:00;97040;;;15.3;81.1
23253;BME280;11795;47.054;15.408;2023-05-23T04:10:00;97040;;;15.2;81.4
23253;BME280;11795;47.054;15.408;2023-05-23T04:12:00;97030;;;15.2;81.5
23253;BME280;11795;47.054;15.408;2023-05-23T04:14:01;97040;;;15.3;80.8
23253;BME280;11795;47.054;15.408;2023-05-23T04:16:01;97040;;;15.2;81.2
23253;BME280;11795;47.054;15.408;2023-05-23T04:18:00;97040;;;15.4;80.5
23253;BME280;11795;47.054;15.408;2023-05-23T04:20:00;97040;;;15.3;80.8
23253;BME280;11795;47.054;15.408;2023-05-23T04:22:00;97040;;;15.3;81.2
23253;BME280;11795;47.054;15.408;2023-05-23T04:24:00;97040;;;15.5;80.3
23253;BME280;11795;47.054;15.408;2023-05-23T04:26:00;97030;;;15.5;80.6
23253;BME280;11795;47.054;15.408;2023-05-23T04:28:00;97030;;;15.7;79.9
23253;BME280;11795;47.054;15.408;2023-05-23T04:30:00;97030;;;15.7;80.0
23253;BME280;11795;47.054;15.408;2023-05-23T04:32:00;97040;;;15.7;80.2
23253;BME280;11795;47.054;15.408;2023-05-23T04:34:01;97040;;;15.9;79.1
23253;BME280;11795;47.054;15.408;2023-05-23T04:36:00;97040;;;15.9;79.9
23253;BME280;11795;47.054;15.408;2023-05-23T04:38:00;97040;;;16.0;79.9
23253;BME280;11795;47.054;15.408;2023-05-23T04:40:00;97040;;;15.8;80.6
23253;BME280;11795;47.054;15.408;2023-05-23T04:42:00;97030;;;15.9;80.8
23253;BME280;11795;47.054;15.408;2023-05-23T04:44:00;97040;;;16.1;79.8
23253;BME280;11795;47.054;15.408;2023-05-23T04:46:01;97040;;;16.1;80.0
23253;BME280;11795;47.054;15.408;2023-05-23T04:48:01;97030;;;16.3;79.2
23253;BME280;11795;47.054;15.408;2023-05-23T04:50:01;97030;;;16.3;79.2
23253;BME280;11795;47.054;15.408;2023-05-23T04:52:00;97030;;;16.2;79.6
23253;BME280;11795;47.054;15.408;2023-05-23T04:54:00;97030;;;16.5;78.7
23253;BME280;11795;47.054;15.408;2023-05-23T04:56:00;97030;;;16.4;79.2
23253;BME280;11795;47.054;15.408;2023-05-23T04:58:00;97020;;;16.7;78.1
23253;BME280;11795;47.054;15.408;2023-05-23T05:00:00;97030;;;16.6;78.3
23253;BME280;11795;47.054;15.408;2023-05-23T05:02:00;97030;;;16.7;78.1
23253;BME280;11795;47.054;15.408;2023-05-23T05:04:00;97030;;;16.9;77.2
23253;BME280;11795;47.054;15.408;2023-05-23T05:06:01;97030;;;17.0;77.3
23253;BME280;11795;47.054;15.408;2023-05-23T05:08:00;97030;;;17.2;76.6
23253;BME280;11795;47.054;15.408;2023-05-23T05:10:00;97030;;;17.3;76.4
23253;BME280;11795;47.054;15.408;2023-05-23T05:12:00;97020;;;17.4;76.2
23253;BME280;11795;47.054;15.408;2023-05-23T05:14:00;97020;;;17.6;74.2
23253;BME280;11795;47.054;15.408;2023-05-23T05:16:00;97020;;;17.6;73.8
23253;BME280;11795;47.054;15.408;2023-05-23T05:18:00;97020;;;17.9;73.3
23253;BME280;11795;47.054;15.408;2023-05-23T05:20:00;97020;;;17.9;72.9
23253;BME280;11795;47.054;15.408;2023-05-23T05:22:00;97020;;;18.0;72.5
23253;BME280;11795;47.054;15.408;2023-05-23T05:24:00;97010;;;18.2;71.4
23253;BME280;11795;47.054;15.408;2023-05-23T05:26:00;97010;;;18.2;71.3
23253;BME280;11795;47.054;15.408;2023-05-23T05:28:02;97010;;;18.5;70.8
23253;BME280;11795;47.054;15.408;2023-05-23T05:30:04;97010;;;18.5;70.8
23253;BME280;11795;47.054;15.408;2023-05-23T05:32:00;97000;;;18.6;69.6
23253;BME280;11795;47.054;15.408;2023-05-23T05:34:00;97000;;;18.9;69.2
23253;BME280;11795;47.054;15.408;2023-05-23T05:36:00;97000;;;18.8;68.8
23253;BME280;11795;47.054;15.408;2023-05-23T05:38:00;97000;;;19.1;68.4
23253;BME280;11795;47.054;15.408;2023-05-23T05:40:05;97000;;;19.2;67.5
23253;BME280;11795;47.054;15.408;2023-05-23T05:42:02;97000;;;19.2;67.4
23253;BME280;11795;47.054;15.408;2023-05-23T05:44:00;97000;;;19.5;66.7
23253;BME280;11795;47.054;15.408;2023-05-23T05:46:00;97000;;;19.6;66.9
23253;BME280;11795;47.054;15.408;2023-05-23T05:48:00;97000;;;19.8;65.7
23253;BME280;11795;47.054;15.408;2023-05-23T05:50:00;97000;;;19.9;65.6
23253;BME280;11795;47.054;15.408;2023-05-23T05:52:00;97000;;;19.8;64.2
23253;BME280;11795;47.054;15.408;2023-05-23T05:54:00;96990;;;20.0;64.0
23253;BME280;11795;47.054;15.408;2023-05-23T05:56:00;96990;;;20.0;64.7
23253;BME280;11795;47.054;15.408;2023-05-23T05:58:00;97000;;;20.3;64.2
23253;BME280;11795;47.054;15.408;2023-05-23T06:00:00;96990;;;20.4;64.1
23253;BME280;11795;47.054;15.408;2023-05-23T06:02:00;96990;;;20.5;63.7
23253;BME280;11795;47.054;15.408;2023-05-23T06:04:00;96990;;;20.7;62.2
23253;BME280;11795;47.054;15.408;2023-05-23T06:06:00;96990;;;20.7;61.5
23253;BME280;11795;47.054;15.408;2023-05-23T06:08:00;96990;;;20.9;61.5
23253;BME280;11795;47.054;15.408;2023-05-23T06:10:00;96990;;;21.0;61.3
23253;BME280;11795;47.054;15.408;2023-05-23T06:12:00;96990;;;20.9;59.8
23253;BME280;11795;47.054;15.408;2023-05-23T06:14:00;96980;;;21.0;59.7
23253;BME280;11795;47.054;15.408;2023-05-23T06:16:00;96990;;;21.0;60.2
23253;BME280;11795;47.054;15.408;2023-05-23T06:18:00;96980;;;21.2;60.0
23253;BME280;11795;47.054;15.408;2023-05-23T06:20:00;96980;;;21.2;59.4
23253;BME280;11795;47.054;15.408;2023-05-23T06:22:00;96980;;;21.2;60.1
23253;BME280;11795;47.054;15.408;2023-05-23T06:24:00;96980;;;21.5;58.4
23253;BME280;11795;47.054;15.408;2023-05-23T06:26:00;96980;;;21.5;59.0
23253;BME280;11795;47.054;15.408;2023-05-23T06:28:00;96980;;;21.8;59.0
23253;BME280;11795;47.054;15.408;2023-05-23T06:30:01;96980;;;21.9;58.4
23253;BME280;11795;47.054;15.408;2023-05-23T06:32:00;96980;;;21.9;58.1
23253;BME280;11795;47.054;15.408;2023-05-23T06:34:00;96980;;;22.2;57.6
23253;BME280;11795;47.054;15.408;2023-05-23T06:36:00;96980;;;22.2;58.1
23253;BME280;11795;47.054;15.408;2023-05-23T06:38:00;96980;;;22.3;56.8
23253;BME280;11795;47.054;15.408;2023-05-23T06:40:00;96980;;;22.3;56.6
23253;BME280;11795;47.054;15.408;2023-05-23T06:42:01;96970;;;22.2;56.0
23253;BME280;11795;47.054;15.408;2023-05-23T06:44:00;96970;;;22.3;55.4
23253;BME280;11795;47.054;15.408;2023-05-23T06:46:00;96970;;;22.3;56.7
23253;BME280;11795;47.054;15.408;2023-05-23T06:48:00;96970;;;22.5;56.1
23253;BME280;11795;47.054;15.408;2023-05-23T06:50:01;96980;;;22.6;55.6
23253;BME280;11795;47.054;15.408;2023-05-23T06:52:00;96980;;;22.7;54.7
23253;BME280;11795;47.054;15.408;2023-05-23T06:54:00;96970;;;22.9;54.8
23253;BME280;11795;47.054;15.408;2023-05-23T06:56:00;96970;;;22.9;54.3
23253;BME280;11795;47.054;15.408;2023-05-23T06:58:03;96970;;;22.9;54.1
23253;BME280;11795;47.054;15.408;2023-05-23T07:00:00;96970;;;22.8;54.3
23253;BME280;11795;47.054;15.408;2023-05-23T07:02:00;96970;;;22.8;54.6
23253;BME280;11795;47.054;15.408;2023-05-23T07:04:00;96960;;;22.9;53.1
23253;BME280;11795;47.054;15.408;2023-05-23T07:06:00;96960;;;22.8;54.2
23253;BME280;11795;47.054;15.408;2023-05-23T07:08:01;96960;;;22.9;54.2
23253;BME280;11795;47.054;15.408;2023-05-23T07:10:00;96960;;;23.1;54.3
23253;BME280;11795;47.054;15.408;2023-05-23T07:12:00;96960;;;23.3;54.5
23253;BME280;11795;47.054;15.408;2023-05-23T07:14:00;96960;;;23.6;52.9
23253;BME280;11795;47.054;15.408;2023-05-23T07:16:00;96960;;;23.6;51.9
23253;BME280;11795;47.054;15.408;2023-05-23T07:18:00;96960;;;23.5;51.9
23253;BME280;11795;47.054;15.408;2023-05-23T07:20:00;96950;;;23.6;52.4
23253;BME280;11795;47.054;15.408;2023-05-23T07:22:00;96950;;;23.6;51.2
23253;BME280;11795;47.054;15.408;2023-05-23T07:24:00;96950;;;23.5;51.9
23253;BME280;11795;47.054;15.408;2023-05-23T07:26:01;96950;;;23.5;51.8
23253;BME280;11795;47.054;15.408;2023-05-23T07:28:00;96950;;;23.5;52.2
23253;BME280;11795;47.054;15.408;2023-05-23T07:30:00;96950;;;23.5;52.2
23253;BME280;11795;47.054;15.408;2023-05-23T07:32:00;96950;;;23.6;52.9
23253;BME280;11795;47.054;15.408;2023-05-23T07:34:00;96950;;;24.0;51.1
23253;BME280;11795;47.054;15.408;2023-05-23T07:36:00;96950;;;23.9;51.0
23253;BME280;11795;47.054;15.408;2023-05-23T07:38:01;96940;;;24.1;51.1
23253;BME280;11795;47.054;15.408;2023-05-23T07:40:00;96940;;;24.3;51.1
23253;BME280;11795;47.054;15.408;2023-05-23T07:42:00;96940;;;24.5;50.1
23253;BME280;11795;47.054;15.408;2023-05-23T07:44:00;96940;;;24.8;49.7
23253;BME280;11795;47.054;15.408;2023-05-23T07:46:00;96930;;;24.7;49.1
23253;BME280;11795;47.054;15.408;2023-05-23T07:48:01;96930;;;24.7;49.4
23253;BME280;11795;47.054;15.408;2023-05-23T07:50:01;96940;;;24.8;49.5
23253;BME280;11795;47.054;15.408;2023-05-23T07:52:00;96940;;;24.8;48.8
23253;BME280;11795;47.054;15.408;2023-05-23T07:54:00;96930;;;25.0;48.9
23253;BME280;11795;47.054;15.408;2023-05-23T07:56:00;96930;;;24.9;47.7
23253;BME280;11795;47.054;15.408;2023-05-23T07:58:00;96930;;;24.9;47.5
23253;BME280;11795;47.054;15.408;2023-05-23T08:00:00;96920;;;25.2;47.9
23253;BME280;11795;47.054;15.408;2023-05-23T08:02:00;96920;;;25.3;48.8
23253;BME280;11795;47.054;15.408;2023-05-23T08:04:00;96920;;;25.6;49.4
23253;BME280;11795;47.054;15.408;2023-05-23T08:06:00;96920;;;25.5;48.4
23253;BME280;11795;47.054;15.408;2023-05-23T08:08:00;96930;;;25.3;48.7
23253;BME280;11795;47.054;15.408;2023-05-23T08:10:00;96920;;;25.5;49.4
23253;BME280;11795;47.054;15.408;2023-05-23T08:12:00;96920;;;25.6;49.1
23253;BME280;11795;47.054;15.408;2023-05-23T08:14:00;96920;;;25.8;48.3
23253;BME280;11795;47.054;15.408;2023-05-23T08:16:00;96920;;;25.7;48.5
23253;BME280;11795;47.054;15.408;2023-05-23T08:18:00;96920;;;25.6;49.3
23253;BME280;11795;47.054;15.408;2023-05-23T08:20:01;96920;;;25.7;49.0
23253;BME280;11795;47.054;15.408;2023-05-23T08:22:00;96910;;;25.8;49.7
23253;BME280;11795;47.054;15.408;2023-05-23T08:24:01;96910;;;26.0;49.2
23253;BME280;11795;47.054;15.408;2023-05-23T08:26:00;96920;;;26.1;49.4
23253;BME280;11795;47.054;15.408;2023-05-23T08:28:00;96900;;;26.2;48.0
23253;BME280;11795;47.054;15.408;2023-05-23T08:30:03;96910;;;26.3;47.8
23253;BME280;11795;47.054;15.408;2023-05-23T08:32:00;96910;;;26.3;48.3
23253;BME280;11795;47.054;15.408;2023-05-23T08:34:00;96900;;;26.4;47.8
23253;BME280;11795;47.054;15.408;2023-05-23T08:36:00;96910;;;26.4;48.1
23253;BME280;11795;47.054;15.408;2023-05-23T08:38:01;96910;;;26.4;47.4
23253;BME280;11795;47.054;15.408;2023-05-23T08:40:00;96910;;;26.5;47.9
23253;BME280;11795;47.054;15.408;2023-05-23T08:42:00;96910;;;26.5;47.7
23253;BME280;11795;47.054;15.408;2023-05-23T08:44:00;96910;;;26.8;47.0
23253;BME280;11795;47.054;15.408;2023-05-23T08:46:01;96910;;;26.7;46.8
23253;BME280;11795;47.054;15.408;2023-05-23T08:48:01;96910;;;26.7;46.1
23253;BME280;11795;47.054;15.408;2023-05-23T08:50:01;96910;;;26.8;46.3
23253;BME280;11795;47.054;15.408;2023-05-23T08:52:01;96900;;;26.8;47.2
23253;BME280;11795;47.054;15.408;2023-05-23T08:54:01;96900;;;27.0;46.4
23253;BME280;11795;47.054;15.408;2023-05-23T08:56:02;96900;;;27.1;45.7
23253;BME280;11795;47.054;15.408;2023-05-23T08:58:00;96900;;;26.9;45.9
23253;BME280;11795;47.054;15.408;2023-05-23T09:00:01;96900;;;26.9;46.3
23253;BME280;11795;47.054;15.408;2023-05-23T09:02:02;96900;;;26.8;46.4
23253;BME280;11795;47.054;15.408;2023-05-23T09:04:05;96900;;;26.8;47.7
23253;BME280;11795;47.054;15.408;2023-05-23T09:06:00;96900;;;26.8;48.1
23253;BME280;11795;47.054;15.408;2023-05-23T09:08:00;96900;;;26.9;47.5
23253;BME280;11795;47.054;15.408;2023-05-23T09:10:00;96900;;;27.0;46.7
23253;BME280;11795;47.054;15.408;2023-05-23T09:12:02;96890;;;27.1;46.3
23253;BME280;11795;47.054;15.408;2023-05-23T09:14:00;96890;;;27.2;45.6
23253;BME280;11795;47.054;15.408;2023-05-23T09:16:01;96890;;;27.2;45.4
23253;BME280;11795;47.054;15.408;2023-05-23T09:18:01;96880;;;27.4;44.0
23253;BME280;11795;47.054;15.408;2023-05-23T09:20:00;96880;;;27.4;43.3
23253;BME280;11795;47.054;15.408;2023-05-23T09:22:01;96880;;;27.5;43.9
23253;BME280;11795;47.054;15.408;2023-05-23T09:24:00;96870;;;27.6;43.9
23253;BME280;11795;47.054;15.408;2023-05-23T09:26:01;96870;;;27.6;43.9
23253;BME280;11795;47.054;15.408;2023-05-23T09:28:00;96870;;;27.6;44.1
23253;BME280;11795;47.054;15.408;2023-05-23T09:30:05;96870;;;27.7;43.6
23253;BME280;11795;47.054;15.408;2023-05-23T09:32:09;96870;;;27.8;43.3
23253;BME280;11795;47.054;15.408;2023-05-23T09:34:00;96870;;;27.8;42.5
23253;BME280;11795;47.054;15.408;2023-05-23T09:36:02;96870;;;27.7;42.7
23253;BME280;11795;47.054;15.408;2023-05-23T09:38:00;96860;;;27.8;42.4
23253;BME280;11795;47.054;15.408;2023-05-23T09:40:05;96860;;;27.6;42.9
23253;BME280;11795;47.054;15.408;2023-05-23T09:42:00;96860;;;27.7;43.2
23253;BME280;11795;47.054;15.408;2023-05-23T09:44:05;96850;;;28.1;42.1
23253;BME280;11795;47.054;15.408;2023-05-23T09:46:06;96850;;;28.2;41.5
23253;BME280;11795;47.054;15.408;2023-05-23T09:48:00;96850;;;28.1;40.1
23253;BME280;11795;47.054;15.408;2023-05-23T09:50:01;96850;;;28.2;40.2
23253;BME280;11795;47.054;15.408;2023-05-23T09:52:01;96840;;;28.2;40.7
23253;BME280;11795;47.054;15.408;2023-05-23T09:54:00;96850;;;28.5;40.4
23253;BME280;11795;47.054;15.408;2023-05-23T09:56:02;96850;;;28.6;39.3
23253;BME280;11795;47.054;15.408;2023-05-23T09:58:01;96850;;;28.8;39.9
23253;BME280;11795;47.054;15.408;2023-05-23T10:00:02;96850;;;29.0;39.9
23253;BME280;11795;47.054;15.408;2023-05-23T10:02:02;96850;;;28.9;39.4
23253;BME280;11795;47.054;15.408;2023-05-23T10:04:02;96840;;;28.8;40.0
23253;BME280;11795;47.054;15.408;2023-05-23T10:06:04;96840;;;28.8;39.0
23253;BME280;11795;47.054;15.408;2023-05-23T10:08:01;96830;;;28.7;39.6
23253;BME280;11795;47.054;15.408;2023-05-23T10:10:03;96830;;;28.9;39.5
23253;BME280;11795;47.054;15.408;2023-05-23T10:12:20;96830;;;28.9;39.6
23253;BME280;11795;47.054;15.408;2023-05-23T10:14:04;96830;;;29.0;38.5
23253;BME280;11795;47.054;15.408;2023-05-23T10:16:06;96830;;;29.1;38.9
23253;BME280;11795;47.054;15.408;2023-05-23T10:18:06;96830;;;29.2;39.6
23253;BME280;11795;47.054;15.408;2023-05-23T10:20:03;96820;;;29.3;38.2
23253;BME280;11795;47.054;15.408;2023-05-23T10:22:03;96820;;;29.4;38.4
23253;BME280;11795;47.054;15.408;2023-05-23T10:24:02;96820;;;29.5;38.1
23253;BME280;11795;47.054;15.408;2023-05-23T10:26:02;96820;;;29.5;38.0
23253;BME280;11795;47.054;15.408;2023-05-23T10:28:01;96810;;;29.6;37.7
23253;BME280;11795;47.054;15.408;2023-05-23T10:30:00;96810;;;29.6;36.4
23253;BME280;11795;47.054;15.408;2023-05-23T10:32:02;96800;;;29.2;37.8
23253;BME280;11795;47.054;15.408;2023-05-23T10:34:07;96800;;;29.4;37.9
23253;BME280;11795;47.054;15.408;2023-05-23T10:36:06;96800;;;29.5;36.8
23253;BME280;11795;47.054;15.408;2023-05-23T10:38:04;96790;;;29.6;37.2
23253;BME280;11795;47.054;15.408;2023-05-23T10:40:04;96800;;;29.5;36.8
23253;BME280;11795;47.054;15.408;2023-05-23T10:42:03;96790;;;29.4;37.4
23253;BME280;11795;47.054;15.408;2023-05-23T10:44:06;96790;;;29.3;37.1
23253;BME280;11795;47.054;15.408;2023-05-23T10:46:00;96780;;;29.4;37.9
23253;BME280;11795;47.054;15.408;2023-05-23T10:48:00;96770;;;29.5;36.9
23253;BME280;11795;47.054;15.408;2023-05-23T10:50:00;96770;;;29.3;35.6
23253;BME280;11795;47.054;15.408;2023-05-23T10:52:00;96770;;;29.0;36.6
23253;BME280;11795;47.054;15.408;2023-05-23T10:54:00;96770;;;28.8;37.0
23253;BME280;11795;47.054;15.408;2023-05-23T10:56:01;96770;;;28.6;38.2
23253;BME280;11795;47.054;15.408;2023-05-23T10:58:09;96770;;;28.4;38.3
23253;BME280;11795;47.054;15.408;2023-05-23T11:00:00;96770;;;28.3;38.1
23253;BME280;11795;47.054;15.408;2023-05-23T11:02:02;96770;;;28.3;38.2
23253;BME280;11795;47.054;15.408;2023-05-23T11:04:04;96780;;;28.1;38.6
23253;BME280;11795;47.054;15.408;2023-05-23T11:06:01;96780;;;28.1;38.3
23253;BME280;11795;47.054;15.408;2023-05-23T11:08:09;96790;;;27.9;39.2
23253;BME280;11795;47.054;15.408;2023-05-23T11:10:08;96780;;;28.0;39.4